sensor_id;sensor_type;location;lat;lon;timestamp;P1;durP1;ratioP1;P2;durP2;ratioP2
72127;SDS011;60000;51.030;7.024;2023-03-01T00:02:10;8.23;;;2.67;;
72127;SDS011;60000;51.030;7.024;2023-03-01T00:04:35;6.27;;;2.60;;
72127;SDS011;60000;51.030;7.024;2023-03-01T00:07:00;7.57;;;2.80;;
72127;SDS011;60000;51.030;7.024;2023-03-01T00:09:26;7.77;;;2.77;;
72127;SDS011;60000;51.030;7.024;2023-03-01T00:11:51;8.57;;;2.90;;
72127;SDS011;60000;51.030;7.024;2023-03-01T00:14:17;8.03;;;3.20;;
72127;SDS011;60000;51.030;7.024;2023-03-01T00:16:43;7.90;;;2.70;;
72127;SDS011;60000;51.030;7.024;2023-03-01T00:19:13;7.82;;;2.67;;
72127;SDS011;60000;51.030;7.024;2023-03-01T00:21:40;6.80;;;2.60;;
72127;SDS011;60000;51.030;7.024;2023-03-01T00:24:06;8.00;;;2.80;;
72127;SDS011;60000;51.030;7.024;2023-03-01T00:26:32;6.57;;;2.47;;
72127;SDS011;60000;51.030;7.024;2023-03-01T00:28:57;7.40;;;2.57;;
72127;SDS011;60000;51.030;7.024;2023-03-01T00:31:24;6.78;;;2.17;;
72127;SDS011;60000;51.030;7.024;2023-03-01T00:33:53;8.02;;;2.28;;
72127;SDS011;60000;51.030;7.024;2023-03-01T00:36:22;5.77;;;2.03;;
72127;SDS011;60000;51.030;7.024;2023-03-01T00:38:52;6.47;;;2.45;;
72127;SDS011;60000;51.030;7.024;2023-03-01T00:41:18;7.55;;;2.35;;
72127;SDS011;60000;51.030;7.024;2023-03-01T00:43:45;7.43;;;2.97;;
72127;SDS011;60000;51.030;7.024;2023-03-01T00:46:12;8.30;;;2.97;;
72127;SDS011;60000;51.030;7.024;2023-03-01T00:48:39;7.35;;;2.53;;
72127;SDS011;60000;51.030;7.024;2023-03-01T00:51:06;6.70;;;2.30;;
72127;SDS011;60000;51.030;7.024;2023-03-01T00:53:33;6.45;;;2.10;;
72127;SDS011;60000;51.030;7.024;2023-03-01T00:55:59;5.72;;;2.00;;
72127;SDS011;60000;51.030;7.024;2023-03-01T00:58:25;6.67;;;2.50;;
72127;SDS011;60000;51.030;7.024;2023-03-01T01:00:51;7.55;;;2.10;;
72127;SDS011;60000;51.030;7.024;2023-03-01T01:03:17;4.83;;;1.63;;
72127;SDS011;60000;51.030;7.024;2023-03-01T01:05:43;5.82;;;1.90;;
72127;SDS011;60000;51.030;7.024;2023-03-01T01:08:08;5.93;;;1.93;;
72127;SDS011;60000;51.030;7.024;2023-03-01T01:10:34;6.97;;;2.33;;
72127;SDS011;60000;51.030;7.024;2023-03-01T01:12:59;6.25;;;1.80;;
72127;SDS011;60000;51.030;7.024;2023-03-01T01:15:25;5.50;;;1.70;;
72127;SDS011;60000;51.030;7.024;2023-03-01T01:17:51;6.13;;;2.22;;
72127;SDS011;60000;51.030;7.024;2023-03-01T01:20:16;5.77;;;1.87;;
72127;SDS011;60000;51.030;7.024;2023-03-01T01:22:41;5.73;;;1.80;;
72127;SDS011;60000;51.030;7.024;2023-03-01T01:25:07;5.97;;;1.97;;
72127;SDS011;60000;51.030;7.024;2023-03-01T01:27:33;6.40;;;1.98;;
72127;SDS011;60000;51.030;7.024;2023-03-01T01:29:59;7.57;;;1.67;;
72127;SDS011;60000;51.030;7.024;2023-03-01T01:32:24;6.70;;;2.00;;
72127;SDS011;60000;51.030;7.024;2023-03-01T01:34:49;5.57;;;1.65;;
72127;SDS011;60000;51.030;7.024;2023-03-01T01:37:15;6.37;;;1.90;;
72127;SDS011;60000;51.030;7.024;2023-03-01T01:39:40;6.10;;;1.70;;
72127;SDS011;60000;51.030;7.024;2023-03-01T01:42:06;5.43;;;1.60;;
72127;SDS011;60000;51.030;7.024;2023-03-01T01:44:32;5.77;;;2.10;;
72127;SDS011;60000;51.030;7.024;2023-03-01T01:47:00;6.97;;;2.15;;
72127;SDS011;60000;51.030;7.024;2023-03-01T01:49:31;5.45;;;1.45;;
72127;SDS011;60000;51.030;7.024;2023-03-01T01:52:02;6.05;;;2.08;;
72127;SDS011;60000;51.030;7.024;2023-03-01T01:54:46;7.63;;;2.67;;
72127;SDS011;60000;51.030;7.024;2023-03-01T01:57:18;8.35;;;2.03;;
72127;SDS011;60000;51.030;7.024;2023-03-01T01:59:48;7.57;;;2.97;;
72127;SDS011;60000;51.030;7.024;2023-03-01T02:02:17;8.82;;;2.92;;
72127;SDS011;60000;51.030;7.024;2023-03-01T02:04:43;7.00;;;2.92;;
72127;SDS011;60000;51.030;7.024;2023-03-01T02:07:11;7.90;;;2.80;;
72127;SDS011;60000;51.030;7.024;2023-03-01T02:09:45;6.45;;;2.55;;
72127;SDS011;60000;51.030;7.024;2023-03-01T02:12:13;7.00;;;2.33;;
72127;SDS011;60000;51.030;7.024;2023-03-01T02:14:41;7.20;;;2.75;;
72127;SDS011;60000;51.030;7.024;2023-03-01T02:17:06;6.90;;;2.50;;
72127;SDS011;60000;51.030;7.024;2023-03-01T02:19:39;7.13;;;2.30;;
72127;SDS011;60000;51.030;7.024;2023-03-01T02:22:15;6.78;;;2.70;;
72127;SDS011;60000;51.030;7.024;2023-03-01T02:30:33;7.28;;;2.60;;
72127;SDS011;60000;51.030;7.024;2023-03-01T02:32:59;8.33;;;2.73;;
72127;SDS011;60000;51.030;7.024;2023-03-01T02:35:27;7.63;;;2.20;;
72127;SDS011;60000;51.030;7.024;2023-03-01T02:37:55;7.78;;;3.22;;
72127;SDS011;60000;51.030;7.024;2023-03-01T02:40:22;7.00;;;2.30;;
72127;SDS011;60000;51.030;7.024;2023-03-01T02:42:52;7.38;;;2.25;;
72127;SDS011;60000;51.030;7.024;2023-03-01T02:45:20;6.65;;;2.30;;
72127;SDS011;60000;51.030;7.024;2023-03-01T02:47:46;6.80;;;2.20;;
72127;SDS011;60000;51.030;7.024;2023-03-01T02:53:05;6.70;;;1.92;;
72127;SDS011;60000;51.030;7.024;2023-03-01T02:55:35;5.17;;;1.60;;
72127;SDS011;60000;51.030;7.024;2023-03-01T02:58:01;7.90;;;2.13;;
72127;SDS011;60000;51.030;7.024;2023-03-01T03:00:29;6.13;;;1.90;;
72127;SDS011;60000;51.030;7.024;2023-03-01T03:02:58;7.53;;;2.05;;
72127;SDS011;60000;51.030;7.024;2023-03-01T03:05:24;6.18;;;2.20;;
72127;SDS011;60000;51.030;7.024;2023-03-01T03:07:55;5.67;;;1.63;;
72127;SDS011;60000;51.030;7.024;2023-03-01T03:10:23;6.03;;;1.70;;
72127;SDS011;60000;51.030;7.024;2023-03-01T03:12:58;5.85;;;1.92;;
72127;SDS011;60000;51.030;7.024;2023-03-01T03:15:25;7.63;;;1.90;;
72127;SDS011;60000;51.030;7.024;2023-03-01T03:17:53;5.78;;;2.03;;
72127;SDS011;60000;51.030;7.024;2023-03-01T03:20:20;6.23;;;1.70;;
72127;SDS011;60000;51.030;7.024;2023-03-01T03:22:48;6.60;;;1.80;;
72127;SDS011;60000;51.030;7.024;2023-03-01T03:25:16;6.07;;;1.83;;
72127;SDS011;60000;51.030;7.024;2023-03-01T03:27:43;5.82;;;1.75;;
72127;SDS011;60000;51.030;7.024;2023-03-01T03:30:14;5.47;;;1.60;;
72127;SDS011;60000;51.030;7.024;2023-03-01T03:32:45;6.40;;;2.20;;
72127;SDS011;60000;51.030;7.024;2023-03-01T03:35:17;6.95;;;2.08;;
72127;SDS011;60000;51.030;7.024;2023-03-01T03:37:55;6.15;;;1.75;;
72127;SDS011;60000;51.030;7.024;2023-03-01T03:40:41;6.10;;;1.58;;
72127;SDS011;60000;51.030;7.024;2023-03-01T03:43:12;7.38;;;2.08;;
72127;SDS011;60000;51.030;7.024;2023-03-01T03:45:40;6.80;;;1.73;;
72127;SDS011;60000;51.030;7.024;2023-03-01T03:48:07;6.13;;;1.80;;
72127;SDS011;60000;51.030;7.024;2023-03-01T03:50:37;6.32;;;1.73;;
72127;SDS011;60000;51.030;7.024;2023-03-01T03:53:05;6.95;;;1.65;;
72127;SDS011;60000;51.030;7.024;2023-03-01T03:55:32;6.68;;;1.92;;
72127;SDS011;60000;51.030;7.024;2023-03-01T03:57:59;5.37;;;1.50;;
72127;SDS011;60000;51.030;7.024;2023-03-01T04:00:31;5.68;;;1.70;;
72127;SDS011;60000;51.030;7.024;2023-03-01T04:02:57;6.20;;;1.88;;
72127;SDS011;60000;51.030;7.024;2023-03-01T04:05:23;6.60;;;2.00;;
72127;SDS011;60000;51.030;7.024;2023-03-01T04:07:48;6.47;;;1.80;;
72127;SDS011;60000;51.030;7.024;2023-03-01T04:10:15;5.50;;;1.53;;
72127;SDS011;60000;51.030;7.024;2023-03-01T04:12:42;6.80;;;1.77;;
72127;SDS011;60000;51.030;7.024;2023-03-01T04:15:08;7.10;;;1.88;;
72127;SDS011;60000;51.030;7.024;2023-03-01T04:17:45;7.78;;;1.83;;
72127;SDS011;60000;51.030;7.024;2023-03-01T04:20:12;7.05;;;1.90;;
72127;SDS011;60000;51.030;7.024;2023-03-01T04:22:42;7.53;;;2.15;;
72127;SDS011;60000;51.030;7.024;2023-03-01T04:25:08;7.30;;;1.97;;
72127;SDS011;60000;51.030;7.024;2023-03-01T04:27:34;6.82;;;1.83;;
72127;SDS011;60000;51.030;7.024;2023-03-01T04:30:00;7.65;;;1.95;;
72127;SDS011;60000;51.030;7.024;2023-03-01T04:32:26;7.75;;;2.13;;
72127;SDS011;60000;51.030;7.024;2023-03-01T04:34:51;7.72;;;1.90;;
72127;SDS011;60000;51.030;7.024;2023-03-01T04:37:17;7.67;;;2.10;;
72127;SDS011;60000;51.030;7.024;2023-03-01T04:39:42;7.80;;;2.10;;
72127;SDS011;60000;51.030;7.024;2023-03-01T04:42:12;7.57;;;2.33;;
72127;SDS011;60000;51.030;7.024;2023-03-01T04:44:38;7.45;;;2.22;;
72127;SDS011;60000;51.030;7.024;2023-03-01T04:47:03;6.63;;;1.83;;
72127;SDS011;60000;51.030;7.024;2023-03-01T04:49:29;7.77;;;1.83;;
72127;SDS011;60000;51.030;7.024;2023-03-01T04:51:54;8.25;;;1.73;;
72127;SDS011;60000;51.030;7.024;2023-03-01T04:54:23;6.43;;;1.70;;
72127;SDS011;60000;51.030;7.024;2023-03-01T04:56:48;7.05;;;1.75;;
72127;SDS011;60000;51.030;7.024;2023-03-01T04:59:14;7.17;;;2.20;;
72127;SDS011;60000;51.030;7.024;2023-03-01T05:01:39;8.60;;;1.93;;
72127;SDS011;60000;51.030;7.024;2023-03-01T05:04:07;6.60;;;1.77;;
72127;SDS011;60000;51.030;7.024;2023-03-01T05:06:37;7.60;;;1.83;;
72127;SDS011;60000;51.030;7.024;2023-03-01T05:09:03;7.17;;;1.73;;
72127;SDS011;60000;51.030;7.024;2023-03-01T05:11:28;6.20;;;2.13;;
72127;SDS011;60000;51.030;7.024;2023-03-01T05:13:58;7.07;;;2.00;;
72127;SDS011;60000;51.030;7.024;2023-03-01T05:16:24;6.07;;;1.65;;
72127;SDS011;60000;51.030;7.024;2023-03-01T05:18:49;6.57;;;1.90;;
72127;SDS011;60000;51.030;7.024;2023-03-01T05:21:16;6.32;;;1.80;;
72127;SDS011;60000;51.030;7.024;2023-03-01T05:23:42;6.65;;;2.08;;
72127;SDS011;60000;51.030;7.024;2023-03-01T05:26:08;7.97;;;2.43;;
72127;SDS011;60000;51.030;7.024;2023-03-01T05:28:33;6.60;;;2.13;;
72127;SDS011;60000;51.030;7.024;2023-03-01T05:30:59;6.70;;;2.00;;
72127;SDS011;60000;51.030;7.024;2023-03-01T05:33:25;7.15;;;2.05;;
72127;SDS011;60000;51.030;7.024;2023-03-01T05:35:51;7.43;;;2.23;;
72127;SDS011;60000;51.030;7.024;2023-03-01T05:38:18;8.43;;;2.72;;
72127;SDS011;60000;51.030;7.024;2023-03-01T05:40:45;8.75;;;2.88;;
72127;SDS011;60000;51.030;7.024;2023-03-01T05:43:12;9.40;;;3.65;;
72127;SDS011;60000;51.030;7.024;2023-03-01T05:45:39;10.37;;;3.47;;
72127;SDS011;60000;51.030;7.024;2023-03-01T05:48:05;9.02;;;3.75;;
72127;SDS011;60000;51.030;7.024;2023-03-01T05:50:33;11.18;;;4.07;;
72127;SDS011;60000;51.030;7.024;2023-03-01T05:53:04;12.13;;;4.00;;
72127;SDS011;60000;51.030;7.024;2023-03-01T05:55:51;11.02;;;3.65;;
72127;SDS011;60000;51.030;7.024;2023-03-01T05:58:18;9.20;;;2.90;;
72127;SDS011;60000;51.030;7.024;2023-03-01T06:00:45;8.82;;;3.17;;
72127;SDS011;60000;51.030;7.024;2023-03-01T06:03:12;9.50;;;3.33;;
72127;SDS011;60000;51.030;7.024;2023-03-01T06:05:39;9.73;;;3.27;;
72127;SDS011;60000;51.030;7.024;2023-03-01T06:08:05;9.93;;;3.20;;
72127;SDS011;60000;51.030;7.024;2023-03-01T06:10:31;9.15;;;3.17;;
72127;SDS011;60000;51.030;7.024;2023-03-01T06:12:56;10.27;;;3.37;;
72127;SDS011;60000;51.030;7.024;2023-03-01T06:15:22;8.77;;;3.03;;
72127;SDS011;60000;51.030;7.024;2023-03-01T06:17:48;9.55;;;3.10;;
72127;SDS011;60000;51.030;7.024;2023-03-01T06:20:15;9.37;;;2.83;;
72127;SDS011;60000;51.030;7.024;2023-03-01T06:22:44;7.40;;;2.67;;
72127;SDS011;60000;51.030;7.024;2023-03-01T06:25:10;10.23;;;3.30;;
72127;SDS011;60000;51.030;7.024;2023-03-01T06:27:37;9.63;;;3.40;;
72127;SDS011;60000;51.030;7.024;2023-03-01T06:30:03;9.05;;;3.10;;
72127;SDS011;60000;51.030;7.024;2023-03-01T06:32:29;8.65;;;2.85;;
72127;SDS011;60000;51.030;7.024;2023-03-01T06:34:55;9.27;;;3.10;;
72127;SDS011;60000;51.030;7.024;2023-03-01T06:37:20;10.00;;;3.58;;
72127;SDS011;60000;51.030;7.024;2023-03-01T06:39:45;11.00;;;3.23;;
72127;SDS011;60000;51.030;7.024;2023-03-01T06:42:11;9.50;;;3.37;;
72127;SDS011;60000;51.030;7.024;2023-03-01T06:44:36;10.00;;;3.57;;
72127;SDS011;60000;51.030;7.024;2023-03-01T06:47:02;8.73;;;3.10;;
72127;SDS011;60000;51.030;7.024;2023-03-01T06:49:28;10.50;;;3.00;;
72127;SDS011;60000;51.030;7.024;2023-03-01T06:51:54;8.20;;;3.35;;
72127;SDS011;60000;51.030;7.024;2023-03-01T06:54:19;8.65;;;3.22;;
72127;SDS011;60000;51.030;7.024;2023-03-01T06:56:47;10.67;;;3.87;;
72127;SDS011;60000;51.030;7.024;2023-03-01T06:59:12;11.60;;;4.20;;
72127;SDS011;60000;51.030;7.024;2023-03-01T07:01:38;11.00;;;4.03;;
72127;SDS011;60000;51.030;7.024;2023-03-01T07:04:04;11.60;;;4.60;;
72127;SDS011;60000;51.030;7.024;2023-03-01T07:06:29;11.87;;;5.13;;
72127;SDS011;60000;51.030;7.024;2023-03-01T07:08:55;13.40;;;4.87;;
72127;SDS011;60000;51.030;7.024;2023-03-01T07:11:20;12.90;;;5.07;;
72127;SDS011;60000;51.030;7.024;2023-03-01T07:13:45;12.23;;;4.50;;
72127;SDS011;60000;51.030;7.024;2023-03-01T07:16:10;12.70;;;4.87;;
72127;SDS011;60000;51.030;7.024;2023-03-01T07:18:36;11.15;;;4.30;;
72127;SDS011;60000;51.030;7.024;2023-03-01T07:21:08;11.00;;;3.60;;
72127;SDS011;60000;51.030;7.024;2023-03-01T07:23:35;11.47;;;3.97;;
72127;SDS011;60000;51.030;7.024;2023-03-01T07:26:01;11.30;;;4.38;;
72127;SDS011;60000;51.030;7.024;2023-03-01T07:28:26;13.60;;;4.60;;
72127;SDS011;60000;51.030;7.024;2023-03-01T07:30:52;13.07;;;4.73;;
72127;SDS011;60000;51.030;7.024;2023-03-01T07:33:18;13.27;;;4.93;;
72127;SDS011;60000;51.030;7.024;2023-03-01T07:35:43;13.83;;;4.90;;
72127;SDS011;60000;51.030;7.024;2023-03-01T07:38:09;15.67;;;5.30;;
72127;SDS011;60000;51.030;7.024;2023-03-01T07:40:34;13.07;;;5.63;;
72127;SDS011;60000;51.030;7.024;2023-03-01T07:43:00;14.80;;;5.30;;
72127;SDS011;60000;51.030;7.024;2023-03-01T07:45:26;14.65;;;5.40;;
72127;SDS011;60000;51.030;7.024;2023-03-01T07:47:52;19.60;;;6.40;;
72127;SDS011;60000;51.030;7.024;2023-03-01T07:50:17;14.45;;;5.50;;
72127;SDS011;60000;51.030;7.024;2023-03-01T07:52:45;15.15;;;5.78;;
72127;SDS011;60000;51.030;7.024;2023-03-01T07:55:11;14.63;;;5.33;;
72127;SDS011;60000;51.030;7.024;2023-03-01T07:57:37;12.60;;;5.43;;
72127;SDS011;60000;51.030;7.024;2023-03-01T08:00:02;14.50;;;6.17;;
72127;SDS011;60000;51.030;7.024;2023-03-01T08:02:28;14.82;;;5.22;;
72127;SDS011;60000;51.030;7.024;2023-03-01T08:04:53;15.20;;;6.07;;
72127;SDS011;60000;51.030;7.024;2023-03-01T08:07:19;11.93;;;5.43;;
72127;SDS011;60000;51.030;7.024;2023-03-01T08:09:44;14.13;;;5.80;;
72127;SDS011;60000;51.030;7.024;2023-03-01T08:12:09;15.30;;;5.93;;
72127;SDS011;60000;51.030;7.024;2023-03-01T08:14:35;15.03;;;6.57;;
72127;SDS011;60000;51.030;7.024;2023-03-01T08:17:00;15.73;;;6.20;;
72127;SDS011;60000;51.030;7.024;2023-03-01T08:19:27;14.18;;;6.20;;
72127;SDS011;60000;51.030;7.024;2023-03-01T08:21:53;13.77;;;6.25;;
72127;SDS011;60000;51.030;7.024;2023-03-01T08:24:18;12.20;;;5.93;;
72127;SDS011;60000;51.030;7.024;2023-03-01T08:26:44;13.33;;;5.57;;
72127;SDS011;60000;51.030;7.024;2023-03-01T08:29:09;12.00;;;6.40;;
72127;SDS011;60000;51.030;7.024;2023-03-01T08:31:35;12.83;;;6.13;;
72127;SDS011;60000;51.030;7.024;2023-03-01T08:34:03;11.98;;;5.70;;
72127;SDS011;60000;51.030;7.024;2023-03-01T08:36:32;11.98;;;5.57;;
72127;SDS011;60000;51.030;7.024;2023-03-01T08:39:00;11.97;;;5.97;;
72127;SDS011;60000;51.030;7.024;2023-03-01T08:41:25;12.57;;;5.65;;
72127;SDS011;60000;51.030;7.024;2023-03-01T08:43:51;12.37;;;5.67;;
72127;SDS011;60000;51.030;7.024;2023-03-01T08:46:17;14.38;;;5.65;;
72127;SDS011;60000;51.030;7.024;2023-03-01T08:48:43;12.63;;;5.67;;
72127;SDS011;60000;51.030;7.024;2023-03-01T08:51:15;11.63;;;5.70;;
72127;SDS011;60000;51.030;7.024;2023-03-01T08:53:42;12.38;;;5.75;;
72127;SDS011;60000;51.030;7.024;2023-03-01T08:56:07;11.88;;;5.57;;
72127;SDS011;60000;51.030;7.024;2023-03-01T08:58:33;13.20;;;5.65;;
72127;SDS011;60000;51.030;7.024;2023-03-01T09:00:59;11.82;;;5.57;;
72127;SDS011;60000;51.030;7.024;2023-03-01T09:03:24;10.87;;;5.27;;
72127;SDS011;60000;51.030;7.024;2023-03-01T09:05:51;11.30;;;5.20;;
72127;SDS011;60000;51.030;7.024;2023-03-01T09:08:17;11.80;;;5.30;;
72127;SDS011;60000;51.030;7.024;2023-03-01T09:10:43;11.50;;;5.00;;
72127;SDS011;60000;51.030;7.024;2023-03-01T09:13:08;10.17;;;4.93;;
72127;SDS011;60000;51.030;7.024;2023-03-01T09:15:36;11.20;;;5.72;;
72127;SDS011;60000;51.030;7.024;2023-03-01T09:18:02;14.20;;;5.68;;
72127;SDS011;60000;51.030;7.024;2023-03-01T09:20:27;11.53;;;5.97;;
72127;SDS011;60000;51.030;7.024;2023-03-01T09:22:55;12.75;;;5.70;;
72127;SDS011;60000;51.030;7.024;2023-03-01T09:25:21;13.70;;;5.70;;
72127;SDS011;60000;51.030;7.024;2023-03-01T09:27:46;11.40;;;4.87;;
72127;SDS011;60000;51.030;7.024;2023-03-01T09:30:11;10.53;;;5.37;;
72127;SDS011;60000;51.030;7.024;2023-03-01T09:32:37;14.43;;;5.65;;
72127;SDS011;60000;51.030;7.024;2023-03-01T09:35:03;11.57;;;5.80;;
72127;SDS011;60000;51.030;7.024;2023-03-01T09:37:30;10.45;;;5.50;;
72127;SDS011;60000;51.030;7.024;2023-03-01T09:39:59;12.13;;;5.75;;
72127;SDS011;60000;51.030;7.024;2023-03-01T09:42:24;12.30;;;5.60;;
72127;SDS011;60000;51.030;7.024;2023-03-01T09:47:50;10.93;;;5.60;;
72127;SDS011;60000;51.030;7.024;2023-03-01T09:50:17;11.13;;;5.37;;
72127;SDS011;60000;51.030;7.024;2023-03-01T09:52:49;11.07;;;5.32;;
72127;SDS011;60000;51.030;7.024;2023-03-01T09:55:53;11.25;;;6.00;;
72127;SDS011;60000;51.030;7.024;2023-03-01T10:01:51;12.90;;;5.32;;
72127;SDS011;60000;51.030;7.024;2023-03-01T10:06:52;11.32;;;5.63;;
72127;SDS011;60000;51.030;7.024;2023-03-01T10:09:30;10.77;;;4.95;;
72127;SDS011;60000;51.030;7.024;2023-03-01T10:11:58;11.02;;;5.57;;
72127;SDS011;60000;51.030;7.024;2023-03-01T10:15:02;11.25;;;5.93;;
72127;SDS011;60000;51.030;7.024;2023-03-01T10:19:52;11.13;;;5.43;;
72127;SDS011;60000;51.030;7.024;2023-03-01T10:22:22;10.55;;;5.28;;
72127;SDS011;60000;51.030;7.024;2023-03-01T10:24:53;11.15;;;5.90;;
72127;SDS011;60000;51.030;7.024;2023-03-01T10:32:34;12.85;;;6.07;;
72127;SDS011;60000;51.030;7.024;2023-03-01T10:34:59;11.17;;;5.33;;
72127;SDS011;60000;51.030;7.024;2023-03-01T10:37:24;11.73;;;5.80;;
72127;SDS011;60000;51.030;7.024;2023-03-01T10:40:05;11.18;;;5.68;;
72127;SDS011;60000;51.030;7.024;2023-03-01T10:42:40;11.98;;;5.72;;
72127;SDS011;60000;51.030;7.024;2023-03-01T10:45:17;11.88;;;5.53;;
72127;SDS011;60000;51.030;7.024;2023-03-01T10:53:29;12.38;;;5.65;;
72127;SDS011;60000;51.030;7.024;2023-03-01T10:58:36;12.27;;;5.97;;
72127;SDS011;60000;51.030;7.024;2023-03-01T11:01:26;10.60;;;5.53;;
72127;SDS011;60000;51.030;7.024;2023-03-01T11:04:09;11.43;;;5.70;;
72127;SDS011;60000;51.030;7.024;2023-03-01T11:06:38;10.98;;;6.07;;
72127;SDS011;60000;51.030;7.024;2023-03-01T11:09:18;10.23;;;5.57;;
72127;SDS011;60000;51.030;7.024;2023-03-01T11:11:53;9.32;;;5.03;;
72127;SDS011;60000;51.030;7.024;2023-03-01T11:16:48;12.25;;;5.88;;
72127;SDS011;60000;51.030;7.024;2023-03-01T11:19:23;13.75;;;6.40;;
72127;SDS011;60000;51.030;7.024;2023-03-01T11:22:07;15.73;;;6.53;;
72127;SDS011;60000;51.030;7.024;2023-03-01T11:24:46;10.40;;;5.35;;
72127;SDS011;60000;51.030;7.024;2023-03-01T11:35:18;9.77;;;5.40;;
72127;SDS011;60000;51.030;7.024;2023-03-01T11:40:33;9.05;;;4.75;;
72127;SDS011;60000;51.030;7.024;2023-03-01T11:43:09;11.45;;;5.50;;
72127;SDS011;60000;51.030;7.024;2023-03-01T11:48:48;10.68;;;5.93;;
72127;SDS011;60000;51.030;7.024;2023-03-01T11:57:07;10.85;;;5.82;;
72127;SDS011;60000;51.030;7.024;2023-03-01T12:02:27;12.05;;;7.15;;
72127;SDS011;60000;51.030;7.024;2023-03-01T12:08:31;10.70;;;5.72;;
72127;SDS011;60000;51.030;7.024;2023-03-01T12:15:58;11.98;;;5.50;;
72127;SDS011;60000;51.030;7.024;2023-03-01T12:19:48;11.57;;;5.63;;
72127;SDS011;60000;51.030;7.024;2023-03-01T12:24:46;11.85;;;5.45;;
72127;SDS011;60000;51.030;7.024;2023-03-01T12:38:11;14.45;;;6.18;;
72127;SDS011;60000;51.030;7.024;2023-03-01T12:43:32;11.07;;;5.00;;
72127;SDS011;60000;51.030;7.024;2023-03-01T12:51:39;10.40;;;4.97;;
72127;SDS011;60000;51.030;7.024;2023-03-01T12:54:18;10.50;;;4.97;;
72127;SDS011;60000;51.030;7.024;2023-03-01T12:56:47;9.98;;;5.03;;
72127;SDS011;60000;51.030;7.024;2023-03-01T12:59:32;11.20;;;4.63;;
72127;SDS011;60000;51.030;7.024;2023-03-01T13:02:13;10.40;;;4.32;;
72127;SDS011;60000;51.030;7.024;2023-03-01T13:08:11;11.38;;;5.60;;
72127;SDS011;60000;51.030;7.024;2023-03-01T13:17:50;9.88;;;4.95;;
72127;SDS011;60000;51.030;7.024;2023-03-01T13:20:19;9.18;;;5.10;;
72127;SDS011;60000;51.030;7.024;2023-03-01T13:22:46;11.70;;;5.15;;
72127;SDS011;60000;51.030;7.024;2023-03-01T13:25:14;10.07;;;4.70;;
72127;SDS011;60000;51.030;7.024;2023-03-01T13:27:43;11.15;;;5.15;;
72127;SDS011;60000;51.030;7.024;2023-03-01T13:36:07;9.57;;;4.40;;
72127;SDS011;60000;51.030;7.024;2023-03-01T13:41:16;9.75;;;4.80;;
72127;SDS011;60000;51.030;7.024;2023-03-01T13:44:01;9.15;;;4.00;;
72127;SDS011;60000;51.030;7.024;2023-03-01T13:46:37;10.07;;;4.40;;
72127;SDS011;60000;51.030;7.024;2023-03-01T13:49:03;9.67;;;4.83;;
72127;SDS011;60000;51.030;7.024;2023-03-01T13:51:28;8.83;;;4.47;;
72127;SDS011;60000;51.030;7.024;2023-03-01T13:53:55;8.38;;;3.72;;
72127;SDS011;60000;51.030;7.024;2023-03-01T13:56:29;11.35;;;4.85;;
72127;SDS011;60000;51.030;7.024;2023-03-01T13:59:02;9.30;;;4.40;;
72127;SDS011;60000;51.030;7.024;2023-03-01T14:03:57;10.45;;;4.63;;
72127;SDS011;60000;51.030;7.024;2023-03-01T14:06:30;10.27;;;4.80;;
72127;SDS011;60000;51.030;7.024;2023-03-01T14:11:56;9.85;;;4.43;;
72127;SDS011;60000;51.030;7.024;2023-03-01T14:17:14;9.90;;;5.05;;
72127;SDS011;60000;51.030;7.024;2023-03-01T14:19:48;10.95;;;5.15;;
72127;SDS011;60000;51.030;7.024;2023-03-01T14:22:25;11.23;;;4.72;;
72127;SDS011;60000;51.030;7.024;2023-03-01T14:24:58;10.27;;;4.68;;
72127;SDS011;60000;51.030;7.024;2023-03-01T14:27:30;11.60;;;5.35;;
72127;SDS011;60000;51.030;7.024;2023-03-01T14:30:01;11.15;;;4.63;;
72127;SDS011;60000;51.030;7.024;2023-03-01T14:32:37;9.00;;;4.63;;
72127;SDS011;60000;51.030;7.024;2023-03-01T14:35:16;10.40;;;4.43;;
72127;SDS011;60000;51.030;7.024;2023-03-01T14:37:44;12.57;;;5.10;;
72127;SDS011;60000;51.030;7.024;2023-03-01T14:40:20;9.73;;;4.77;;
72127;SDS011;60000;51.030;7.024;2023-03-01T14:43:08;10.65;;;4.43;;
72127;SDS011;60000;51.030;7.024;2023-03-01T14:45:37;9.73;;;4.32;;
72127;SDS011;60000;51.030;7.024;2023-03-01T14:48:03;10.77;;;5.00;;
72127;SDS011;60000;51.030;7.024;2023-03-01T14:50:31;11.63;;;5.28;;
72127;SDS011;60000;51.030;7.024;2023-03-01T14:53:00;12.35;;;5.63;;
72127;SDS011;60000;51.030;7.024;2023-03-01T14:55:37;11.63;;;5.27;;
72127;SDS011;60000;51.030;7.024;2023-03-01T14:58:09;11.05;;;4.40;;
72127;SDS011;60000;51.030;7.024;2023-03-01T15:00:38;10.40;;;4.53;;
72127;SDS011;60000;51.030;7.024;2023-03-01T15:03:23;10.55;;;4.68;;
72127;SDS011;60000;51.030;7.024;2023-03-01T15:05:50;10.77;;;4.70;;
72127;SDS011;60000;51.030;7.024;2023-03-01T15:08:18;11.40;;;4.83;;
72127;SDS011;60000;51.030;7.024;2023-03-01T15:13:38;11.38;;;4.97;;
72127;SDS011;60000;51.030;7.024;2023-03-01T15:18:31;11.93;;;4.60;;
72127;SDS011;60000;51.030;7.024;2023-03-01T15:21:05;10.07;;;4.45;;
72127;SDS011;60000;51.030;7.024;2023-03-01T15:23:40;12.40;;;5.85;;
72127;SDS011;60000;51.030;7.024;2023-03-01T15:26:05;19.80;;;10.63;;
72127;SDS011;60000;51.030;7.024;2023-03-01T15:28:34;20.38;;;10.10;;
72127;SDS011;60000;51.030;7.024;2023-03-01T15:31:13;29.42;;;12.27;;
72127;SDS011;60000;51.030;7.024;2023-03-01T15:33:45;33.38;;;15.15;;
72127;SDS011;60000;51.030;7.024;2023-03-01T15:39:05;15.68;;;8.57;;
72127;SDS011;60000;51.030;7.024;2023-03-01T15:41:48;22.67;;;10.60;;
72127;SDS011;60000;51.030;7.024;2023-03-01T15:44:15;19.13;;;10.00;;
72127;SDS011;60000;51.030;7.024;2023-03-01T15:46:45;20.02;;;10.10;;
72127;SDS011;60000;51.030;7.024;2023-03-01T15:49:44;16.95;;;9.50;;
72127;SDS011;60000;51.030;7.024;2023-03-01T15:52:05;17.58;;;8.50;;
72127;SDS011;60000;51.030;7.024;2023-03-01T15:55:02;19.40;;;10.50;;
72127;SDS011;60000;51.030;7.024;2023-03-01T15:57:30;27.52;;;13.20;;
72127;SDS011;60000;51.030;7.024;2023-03-01T15:59:55;16.40;;;7.75;;
72127;SDS011;60000;51.030;7.024;2023-03-01T16:02:22;34.65;;;17.00;;
72127;SDS011;60000;51.030;7.024;2023-03-01T16:04:48;60.80;;;22.00;;
72127;SDS011;60000;51.030;7.024;2023-03-01T16:07:13;85.53;;;32.17;;
72127;SDS011;60000;51.030;7.024;2023-03-01T16:09:39;66.77;;;26.93;;
72127;SDS011;60000;51.030;7.024;2023-03-01T16:12:05;27.33;;;10.70;;
72127;SDS011;60000;51.030;7.024;2023-03-01T16:14:31;24.65;;;9.68;;
72127;SDS011;60000;51.030;7.024;2023-03-01T16:16:56;16.77;;;7.30;;
72127;SDS011;60000;51.030;7.024;2023-03-01T16:19:21;35.03;;;15.30;;
72127;SDS011;60000;51.030;7.024;2023-03-01T16:21:47;22.67;;;11.32;;
72127;SDS011;60000;51.030;7.024;2023-03-01T16:24:13;24.70;;;14.90;;
72127;SDS011;60000;51.030;7.024;2023-03-01T16:26:39;18.75;;;9.45;;
72127;SDS011;60000;51.030;7.024;2023-03-01T16:29:04;51.10;;;23.40;;
72127;SDS011;60000;51.030;7.024;2023-03-01T16:31:30;22.98;;;9.82;;
72127;SDS011;60000;51.030;7.024;2023-03-01T16:33:56;35.50;;;16.17;;
72127;SDS011;60000;51.030;7.024;2023-03-01T16:36:23;23.33;;;11.57;;
72127;SDS011;60000;51.030;7.024;2023-03-01T16:38:51;17.65;;;8.77;;
72127;SDS011;60000;51.030;7.024;2023-03-01T16:41:18;27.85;;;12.23;;
72127;SDS011;60000;51.030;7.024;2023-03-01T16:43:45;27.03;;;12.33;;
72127;SDS011;60000;51.030;7.024;2023-03-01T16:46:15;17.45;;;8.70;;
72127;SDS011;60000;51.030;7.024;2023-03-01T16:48:43;22.80;;;10.50;;
72127;SDS011;60000;51.030;7.024;2023-03-01T16:51:09;14.13;;;7.00;;
72127;SDS011;60000;51.030;7.024;2023-03-01T16:53:34;17.33;;;7.20;;
72127;SDS011;60000;51.030;7.024;2023-03-01T16:56:01;14.27;;;6.20;;